sensor_id;sensor_type;location;lat;lon;timestamp;temperature;humidity
3921;DHT22;1975;49.356;6.816;2023-05-13T00:01:40;13.10;99.90
3921;DHT22;1975;49.356;6.816;2023-05-13T00:04:06;13.10;99.90
3921;DHT22;1975;49.356;6.816;2023-05-13T00:06:31;13.10;99.90
3921;DHT22;1975;49.356;6.816;2023-05-13T00:08:57;13.20;99.90
3921;DHT22;1975;49.356;6.816;2023-05-13T00:11:23;13.20;99.90
3921;DHT22;1975;49.356;6.816;2023-05-13T00:13:48;13.10;99.90
3921;DHT22;1975;49.356;6.816;2023-05-13T00:16:14;13.10;99.90
3921;DHT22;1975;49.356;6.816;2023-05-13T00:18:39;13.20;99.90
3921;DHT22;1975;49.356;6.816;2023-05-13T00:21:05;13.20;99.90
3921;DHT22;1975;49.356;6.816;2023-05-13T00:23:30;13.30;99.90
3921;DHT22;1975;49.356;6.816;2023-05-13T00:25:57;13.30;99.90
3921;DHT22;1975;49.356;6.816;2023-05-13T00:28:22;13.30;99.90
3921;DHT22;1975;49.356;6.816;2023-05-13T00:30:48;13.20;99.90
3921;DHT22;1975;49.356;6.816;2023-05-13T00:33:14;13.30;99.90
3921;DHT22;1975;49.356;6.816;2023-05-13T00:35:40;13.30;99.90
3921;DHT22;1975;49.356;6.816;2023-05-13T00:38:05;13.20;99.90
3921;DHT22;1975;49.356;6.816;2023-05-13T00:40:31;13.10;99.90
3921;DHT22;1975;49.356;6.816;2023-05-13T00:42:58;13.10;99.90
3921;DHT22;1975;49.356;6.816;2023-05-13T00:45:23;13.00;99.90
3921;DHT22;1975;49.356;6.816;2023-05-13T00:50:52;13.00;99.90
3921;DHT22;1975;49.356;6.816;2023-05-13T00:53:17;13.00;99.90
3921;DHT22;1975;49.356;6.816;2023-05-13T00:55:43;13.10;99.90
3921;DHT22;1975;49.356;6.816;2023-05-13T00:58:09;13.00;99.90
3921;DHT22;1975;49.356;6.816;2023-05-13T01:00:41;13.10;99.90
3921;DHT22;1975;49.356;6.816;2023-05-13T01:03:12;13.10;99.90
3921;DHT22;1975;49.356;6.816;2023-05-13T01:05:57;13.20;99.90
3921;DHT22;1975;49.356;6.816;2023-05-13T01:11:12;13.10;99.90
3921;DHT22;1975;49.356;6.816;2023-05-13T01:13:38;13.20;99.90
3921;DHT22;1975;49.356;6.816;2023-05-13T01:18:48;13.20;99.90
3921;DHT22;1975;49.356;6.816;2023-05-13T01:21:21;13.20;99.90
3921;DHT22;1975;49.356;6.816;2023-05-13T01:23:47;13.20;99.90
3921;DHT22;1975;49.356;6.816;2023-05-13T01:26:12;13.20;99.90
3921;DHT22;1975;49.356;6.816;2023-05-13T01:28:37;13.20;99.90
3921;DHT22;1975;49.356;6.816;2023-05-13T01:31:03;13.10;99.90
3921;DHT22;1975;49.356;6.816;2023-05-13T01:33:29;13.20;99.90
3921;DHT22;1975;49.356;6.816;2023-05-13T01:35:55;13.10;99.90
3921;DHT22;1975;49.356;6.816;2023-05-13T01:38:21;13.10;99.90
3921;DHT22;1975;49.356;6.816;2023-05-13T01:40:46;13.10;99.90
3921;DHT22;1975;49.356;6.816;2023-05-13T01:43:12;13.10;99.90
3921;DHT22;1975;49.356;6.816;2023-05-13T01:45:38;13.10;99.90
3921;DHT22;1975;49.356;6.816;2023-05-13T01:48:03;13.10;99.90
3921;DHT22;1975;49.356;6.816;2023-05-13T01:50:29;13.10;99.90
3921;DHT22;1975;49.356;6.816;2023-05-13T01:52:54;13.10;99.90
3921;DHT22;1975;49.356;6.816;2023-05-13T01:55:21;13.10;99.90
3921;DHT22;1975;49.356;6.816;2023-05-13T01:57:47;13.10;99.90
3921;DHT22;1975;49.356;6.816;2023-05-13T02:00:12;13.00;99.90
3921;DHT22;1975;49.356;6.816;2023-05-13T02:02:38;13.00;99.90
3921;DHT22;1975;49.356;6.816;2023-05-13T02:05:03;12.90;99.90
3921;DHT22;1975;49.356;6.816;2023-05-13T02:07:29;12.90;99.90
3921;DHT22;1975;49.356;6.816;2023-05-13T02:09:55;12.90;99.90
3921;DHT22;1975;49.356;6.816;2023-05-13T02:12:26;12.80;99.90
3921;DHT22;1975;49.356;6.816;2023-05-13T02:14:52;12.90;99.90
3921;DHT22;1975;49.356;6.816;2023-05-13T02:17:18;12.90;99.90
3921;DHT22;1975;49.356;6.816;2023-05-13T02:19:43;12.90;99.90
3921;DHT22;1975;49.356;6.816;2023-05-13T02:22:09;12.90;99.90
3921;DHT22;1975;49.356;6.816;2023-05-13T02:24:36;12.90;99.90
3921;DHT22;1975;49.356;6.816;2023-05-13T02:27:04;12.80;99.90
3921;DHT22;1975;49.356;6.816;2023-05-13T02:29:30;12.80;99.90
3921;DHT22;1975;49.356;6.816;2023-05-13T02:31:55;12.80;99.90
3921;DHT22;1975;49.356;6.816;2023-05-13T02:34:21;12.70;99.90
3921;DHT22;1975;49.356;6.816;2023-05-13T02:36:46;12.60;99.90
3921;DHT22;1975;49.356;6.816;2023-05-13T02:39:13;12.60;99.90
3921;DHT22;1975;49.356;6.816;2023-05-13T02:41:38;12.50;99.90
3921;DHT22;1975;49.356;6.816;2023-05-13T02:44:04;12.50;99.90
3921;DHT22;1975;49.356;6.816;2023-05-13T02:46:30;12.40;99.90
3921;DHT22;1975;49.356;6.816;2023-05-13T02:48:55;12.40;99.90
3921;DHT22;1975;49.356;6.816;2023-05-13T02:51:21;12.40;99.90
3921;DHT22;1975;49.356;6.816;2023-05-13T02:53:46;12.30;99.90
3921;DHT22;1975;49.356;6.816;2023-05-13T02:56:12;12.20;99.90
3921;DHT22;1975;49.356;6.816;2023-05-13T02:58:40;12.20;99.90
3921;DHT22;1975;49.356;6.816;2023-05-13T03:01:06;12.10;99.90
3921;DHT22;1975;49.356;6.816;2023-05-13T03:03:31;12.10;99.90
3921;DHT22;1975;49.356;6.816;2023-05-13T03:05:57;12.10;99.90
3921;DHT22;1975;49.356;6.816;2023-05-13T03:08:22;12.00;99.90
3921;DHT22;1975;49.356;6.816;2023-05-13T03:10:48;12.00;99.90
3921;DHT22;1975;49.356;6.816;2023-05-13T03:13:13;12.00;99.90
3921;DHT22;1975;49.356;6.816;2023-05-13T03:15:39;12.00;99.90
3921;DHT22;1975;49.356;6.816;2023-05-13T03:18:04;12.00;99.90
3921;DHT22;1975;49.356;6.816;2023-05-13T03:20:30;11.90;99.90
3921;DHT22;1975;49.356;6.816;2023-05-13T03:22:55;11.90;99.90
3921;DHT22;1975;49.356;6.816;2023-05-13T03:25:21;11.80;99.90
3921;DHT22;1975;49.356;6.816;2023-05-13T03:27:46;11.80;99.90
3921;DHT22;1975;49.356;6.816;2023-05-13T03:30:12;11.80;99.90
3921;DHT22;1975;49.356;6.816;2023-05-13T03:32:38;11.70;99.90
3921;DHT22;1975;49.356;6.816;2023-05-13T03:35:03;11.70;99.90
3921;DHT22;1975;49.356;6.816;2023-05-13T03:37:29;11.70;99.90
3921;DHT22;1975;49.356;6.816;2023-05-13T03:39:54;11.70;99.90
3921;DHT22;1975;49.356;6.816;2023-05-13T03:42:20;11.70;99.90
3921;DHT22;1975;49.356;6.816;2023-05-13T03:44:47;11.70;99.90
3921;DHT22;1975;49.356;6.816;2023-05-13T03:47:12;11.60;99.90
3921;DHT22;1975;49.356;6.816;2023-05-13T03:49:38;11.60;99.90
3921;DHT22;1975;49.356;6.816;2023-05-13T03:52:04;11.50;99.90
3921;DHT22;1975;49.356;6.816;2023-05-13T03:54:32;11.50;99.90
3921;DHT22;1975;49.356;6.816;2023-05-13T03:56:57;11.40;99.90
3921;DHT22;1975;49.356;6.816;2023-05-13T03:59:23;11.40;99.90
3921;DHT22;1975;49.356;6.816;2023-05-13T04:01:48;11.40;99.90
3921;DHT22;1975;49.356;6.816;2023-05-13T04:04:14;11.30;99.90
3921;DHT22;1975;49.356;6.816;2023-05-13T04:06:39;11.30;99.90
3921;DHT22;1975;49.356;6.816;2023-05-13T04:09:05;11.40;99.90
3921;DHT22;1975;49.356;6.816;2023-05-13T04:11:30;11.40;99.90
3921;DHT22;1975;49.356;6.816;2023-05-13T04:13:56;11.40;99.90
3921;DHT22;1975;49.356;6.816;2023-05-13T04:16:22;11.40;99.90
3921;DHT22;1975;49.356;6.816;2023-05-13T04:18:47;11.40;99.90
3921;DHT22;1975;49.356;6.816;2023-05-13T04:21:13;11.40;99.90
3921;DHT22;1975;49.356;6.816;2023-05-13T04:23:38;11.40;99.90
3921;DHT22;1975;49.356;6.816;2023-05-13T04:26:04;11.30;99.90
3921;DHT22;1975;49.356;6.816;2023-05-13T04:28:29;11.40;99.90
3921;DHT22;1975;49.356;6.816;2023-05-13T04:30:55;11.40;99.90
3921;DHT22;1975;49.356;6.816;2023-05-13T04:33:21;11.40;99.90
3921;DHT22;1975;49.356;6.816;2023-05-13T04:35:47;11.30;99.90
3921;DHT22;1975;49.356;6.816;2023-05-13T04:38:12;11.30;99.90
3921;DHT22;1975;49.356;6.816;2023-05-13T04:40:38;11.30;99.90
3921;DHT22;1975;49.356;6.816;2023-05-13T04:43:03;11.30;99.90
3921;DHT22;1975;49.356;6.816;2023-05-13T04:45:28;11.30;99.90
3921;DHT22;1975;49.356;6.816;2023-05-13T04:47:56;11.40;99.90
3921;DHT22;1975;49.356;6.816;2023-05-13T04:50:21;11.40;99.90
3921;DHT22;1975;49.356;6.816;2023-05-13T04:52:47;11.40;99.90
3921;DHT22;1975;49.356;6.816;2023-05-13T04:55:12;11.40;99.90
3921;DHT22;1975;49.356;6.816;2023-05-13T04:57:38;11.40;99.90
3921;DHT22;1975;49.356;6.816;2023-05-13T05:00:04;11.40;99.90
3921;DHT22;1975;49.356;6.816;2023-05-13T05:02:29;11.50;99.90
3921;DHT22;1975;49.356;6.816;2023-05-13T05:04:55;11.50;99.90
3921;DHT22;1975;49.356;6.816;2023-05-13T05:07:21;11.50;99.90
3921;DHT22;1975;49.356;6.816;2023-05-13T05:09:46;11.50;99.90
3921;DHT22;1975;49.356;6.816;2023-05-13T05:12:12;11.50;99.90
3921;DHT22;1975;49.356;6.816;2023-05-13T05:14:38;11.50;99.90
3921;DHT22;1975;49.356;6.816;2023-05-13T05:17:03;11.50;99.90
3921;DHT22;1975;49.356;6.816;2023-05-13T05:19:29;11.60;99.90
3921;DHT22;1975;49.356;6.816;2023-05-13T05:21:54;11.60;99.90
3921;DHT22;1975;49.356;6.816;2023-05-13T05:24:19;11.60;99.90
3921;DHT22;1975;49.356;6.816;2023-05-13T05:26:45;11.60;99.90
3921;DHT22;1975;49.356;6.816;2023-05-13T05:29:10;11.60;99.90
3921;DHT22;1975;49.356;6.816;2023-05-13T05:31:36;11.70;99.90
3921;DHT22;1975;49.356;6.816;2023-05-13T05:34:01;11.70;99.90
3921;DHT22;1975;49.356;6.816;2023-05-13T05:36:28;11.70;99.90
3921;DHT22;1975;49.356;6.816;2023-05-13T05:38:53;11.80;99.90
3921;DHT22;1975;49.356;6.816;2023-05-13T05:41:19;11.80;99.90
3921;DHT22;1975;49.356;6.816;2023-05-13T05:43:44;11.80;99.90
3921;DHT22;1975;49.356;6.816;2023-05-13T05:46:09;11.90;99.90
3921;DHT22;1975;49.356;6.816;2023-05-13T05:48:35;11.90;99.90
3921;DHT22;1975;49.356;6.816;2023-05-13T05:51:01;11.90;99.90
3921;DHT22;1975;49.356;6.816;2023-05-13T05:53:26;12.00;99.90
3921;DHT22;1975;49.356;6.816;2023-05-13T05:55:52;12.00;99.90
3921;DHT22;1975;49.356;6.816;2023-05-13T05:58:17;12.10;99.90
3921;DHT22;1975;49.356;6.816;2023-05-13T06:00:43;12.10;99.90
3921;DHT22;1975;49.356;6.816;2023-05-13T06:03:08;12.10;99.90
3921;DHT22;1975;49.356;6.816;2023-05-13T06:05:34;12.20;99.90
3921;DHT22;1975;49.356;6.816;2023-05-13T06:07:59;12.20;99.90
3921;DHT22;1975;49.356;6.816;2023-05-13T06:10:25;12.20;99.90
3921;DHT22;1975;49.356;6.816;2023-05-13T06:12:50;12.20;99.90
3921;DHT22;1975;49.356;6.816;2023-05-13T06:15:16;12.20;99.90
3921;DHT22;1975;49.356;6.816;2023-05-13T06:17:41;12.30;99.90
3921;DHT22;1975;49.356;6.816;2023-05-13T06:20:07;12.40;99.90
3921;DHT22;1975;49.356;6.816;2023-05-13T06:22:32;12.40;99.90
3921;DHT22;1975;49.356;6.816;2023-05-13T06:24:58;12.40;99.90
3921;DHT22;1975;49.356;6.816;2023-05-13T06:27:24;12.50;99.90
3921;DHT22;1975;49.356;6.816;2023-05-13T06:29:49;12.50;99.90
3921;DHT22;1975;49.356;6.816;2023-05-13T06:32:15;12.60;99.90
3921;DHT22;1975;49.356;6.816;2023-05-13T06:34:41;12.60;99.90
3921;DHT22;1975;49.356;6.816;2023-05-13T06:37:10;12.70;99.90
3921;DHT22;1975;49.356;6.816;2023-05-13T06:39:36;12.70;99.90
3921;DHT22;1975;49.356;6.816;2023-05-13T06:42:01;12.80;99.90
3921;DHT22;1975;49.356;6.816;2023-05-13T06:44:27;12.80;99.90
3921;DHT22;1975;49.356;6.816;2023-05-13T06:46:52;12.90;99.90
3921;DHT22;1975;49.356;6.816;2023-05-13T06:49:17;13.00;99.90
3921;DHT22;1975;49.356;6.816;2023-05-13T06:51:43;13.00;99.90
3921;DHT22;1975;49.356;6.816;2023-05-13T06:54:08;13.20;99.90
3921;DHT22;1975;49.356;6.816;2023-05-13T06:56:34;13.30;99.90
3921;DHT22;1975;49.356;6.816;2023-05-13T06:58:59;13.40;99.90
3921;DHT22;1975;49.356;6.816;2023-05-13T07:01:25;13.40;99.90
3921;DHT22;1975;49.356;6.816;2023-05-13T07:03:50;13.50;99.90
3921;DHT22;1975;49.356;6.816;2023-05-13T07:06:16;13.60;99.90
3921;DHT22;1975;49.356;6.816;2023-05-13T07:08:41;13.70;99.90
3921;DHT22;1975;49.356;6.816;2023-05-13T07:11:07;13.70;99.90
3921;DHT22;1975;49.356;6.816;2023-05-13T07:13:32;13.70;99.90
3921;DHT22;1975;49.356;6.816;2023-05-13T07:15:59;13.80;99.90
3921;DHT22;1975;49.356;6.816;2023-05-13T07:18:25;13.90;99.90
3921;DHT22;1975;49.356;6.816;2023-05-13T07:20:50;13.90;99.90
3921;DHT22;1975;49.356;6.816;2023-05-13T07:23:16;13.90;99.90
3921;DHT22;1975;49.356;6.816;2023-05-13T07:25:42;14.00;99.90
3921;DHT22;1975;49.356;6.816;2023-05-13T07:28:07;14.00;99.90
3921;DHT22;1975;49.356;6.816;2023-05-13T07:30:33;14.10;99.90
3921;DHT22;1975;49.356;6.816;2023-05-13T07:32:58;14.10;99.90
3921;DHT22;1975;49.356;6.816;2023-05-13T07:35:24;14.20;99.90
3921;DHT22;1975;49.356;6.816;2023-05-13T07:37:49;14.30;99.90
3921;DHT22;1975;49.356;6.816;2023-05-13T07:40:15;14.40;99.90
3921;DHT22;1975;49.356;6.816;2023-05-13T07:42:42;14.40;99.90
3921;DHT22;1975;49.356;6.816;2023-05-13T07:45:07;14.40;99.90
3921;DHT22;1975;49.356;6.816;2023-05-13T07:47:33;14.50;99.90
3921;DHT22;1975;49.356;6.816;2023-05-13T07:49:58;14.50;99.90
3921;DHT22;1975;49.356;6.816;2023-05-13T07:52:24;14.60;99.90
3921;DHT22;1975;49.356;6.816;2023-05-13T07:54:50;14.60;99.90
3921;DHT22;1975;49.356;6.816;2023-05-13T07:57:16;14.60;99.90
3921;DHT22;1975;49.356;6.816;2023-05-13T07:59:41;14.70;99.90
3921;DHT22;1975;49.356;6.816;2023-05-13T08:02:06;14.70;99.90
3921;DHT22;1975;49.356;6.816;2023-05-13T08:04:33;14.80;99.90
3921;DHT22;1975;49.356;6.816;2023-05-13T08:06:59;14.80;99.90
3921;DHT22;1975;49.356;6.816;2023-05-13T08:09:25;14.90;99.90
3921;DHT22;1975;49.356;6.816;2023-05-13T08:11:51;14.90;99.90
3921;DHT22;1975;49.356;6.816;2023-05-13T08:14:16;15.10;99.90
3921;DHT22;1975;49.356;6.816;2023-05-13T08:16:42;15.00;99.90
3921;DHT22;1975;49.356;6.816;2023-05-13T08:19:08;14.90;99.90
3921;DHT22;1975;49.356;6.816;2023-05-13T08:21:33;14.80;99.90
3921;DHT22;1975;49.356;6.816;2023-05-13T08:23:59;14.80;99.90
3921;DHT22;1975;49.356;6.816;2023-05-13T08:26:24;14.70;99.90
3921;DHT22;1975;49.356;6.816;2023-05-13T08:28:50;14.70;99.90
3921;DHT22;1975;49.356;6.816;2023-05-13T08:31:15;14.70;99.90
3921;DHT22;1975;49.356;6.816;2023-05-13T08:33:41;14.70;99.90
3921;DHT22;1975;49.356;6.816;2023-05-13T08:36:07;14.90;99.90
3921;DHT22;1975;49.356;6.816;2023-05-13T08:38:33;15.10;99.90
3921;DHT22;1975;49.356;6.816;2023-05-13T08:40:58;15.20;99.90
3921;DHT22;1975;49.356;6.816;2023-05-13T08:43:24;15.30;99.90
3921;DHT22;1975;49.356;6.816;2023-05-13T08:45:51;15.30;99.90
3921;DHT22;1975;49.356;6.816;2023-05-13T08:48:19;15.30;99.90
3921;DHT22;1975;49.356;6.816;2023-05-13T08:50:44;15.40;99.90
3921;DHT22;1975;49.356;6.816;2023-05-13T08:53:11;15.40;99.90
3921;DHT22;1975;49.356;6.816;2023-05-13T08:55:37;15.50;99.90
3921;DHT22;1975;49.356;6.816;2023-05-13T08:58:03;15.50;99.90
3921;DHT22;1975;49.356;6.816;2023-05-13T09:00:28;15.50;99.90
3921;DHT22;1975;49.356;6.816;2023-05-13T09:02:54;15.60;99.90
3921;DHT22;1975;49.356;6.816;2023-05-13T09:05:19;15.70;99.90
3921;DHT22;1975;49.356;6.816;2023-05-13T09:07:45;15.70;99.90
3921;DHT22;1975;49.356;6.816;2023-05-13T09:10:11;15.70;99.90
3921;DHT22;1975;49.356;6.816;2023-05-13T09:15:12;15.90;99.90
3921;DHT22;1975;49.356;6.816;2023-05-13T09:17:41;15.90;99.90
3921;DHT22;1975;49.356;6.816;2023-05-13T09:20:09;16.10;99.90
3921;DHT22;1975;49.356;6.816;2023-05-13T09:22:35;16.20;99.90
3921;DHT22;1975;49.356;6.816;2023-05-13T09:25:01;16.10;99.90
3921;DHT22;1975;49.356;6.816;2023-05-13T09:27:36;16.10;99.90
3921;DHT22;1975;49.356;6.816;2023-05-13T09:30:05;16.20;99.90
3921;DHT22;1975;49.356;6.816;2023-05-13T09:32:30;16.30;99.90
3921;DHT22;1975;49.356;6.816;2023-05-13T09:34:56;16.40;99.90
3921;DHT22;1975;49.356;6.816;2023-05-13T09:37:22;16.40;99.90
3921;DHT22;1975;49.356;6.816;2023-05-13T09:39:47;16.40;99.90
3921;DHT22;1975;49.356;6.816;2023-05-13T09:42:16;16.40;99.90
3921;DHT22;1975;49.356;6.816;2023-05-13T09:44:43;16.30;99.90
3921;DHT22;1975;49.356;6.816;2023-05-13T09:47:14;16.40;99.90
3921;DHT22;1975;49.356;6.816;2023-05-13T09:49:41;16.50;99.90
3921;DHT22;1975;49.356;6.816;2023-05-13T09:52:10;16.50;99.90
3921;DHT22;1975;49.356;6.816;2023-05-13T09:54:39;16.50;99.90
3921;DHT22;1975;49.356;6.816;2023-05-13T09:57:04;16.50;99.90
3921;DHT22;1975;49.356;6.816;2023-05-13T09:59:30;16.50;99.90
3921;DHT22;1975;49.356;6.816;2023-05-13T10:01:56;16.50;99.90
3921;DHT22;1975;49.356;6.816;2023-05-13T10:04:24;16.50;99.90
3921;DHT22;1975;49.356;6.816;2023-05-13T10:06:50;16.60;99.90
3921;DHT22;1975;49.356;6.816;2023-05-13T10:09:15;16.60;99.90
3921;DHT22;1975;49.356;6.816;2023-05-13T10:11:42;16.60;99.90
3921;DHT22;1975;49.356;6.816;2023-05-13T10:14:09;16.70;99.90
3921;DHT22;1975;49.356;6.816;2023-05-13T10:16:34;16.70;99.90
3921;DHT22;1975;49.356;6.816;2023-05-13T10:19:00;16.80;99.90
3921;DHT22;1975;49.356;6.816;2023-05-13T10:21:25;17.10;99.90
3921;DHT22;1975;49.356;6.816;2023-05-13T10:23:51;17.00;99.90
3921;DHT22;1975;49.356;6.816;2023-05-13T10:26:18;17.10;99.90
3921;DHT22;1975;49.356;6.816;2023-05-13T10:28:44;17.10;99.90
3921;DHT22;1975;49.356;6.816;2023-05-13T10:31:09;17.20;99.90
3921;DHT22;1975;49.356;6.816;2023-05-13T10:33:35;17.20;99.90
3921;DHT22;1975;49.356;6.816;2023-05-13T10:40:58;17.30;99.90
3921;DHT22;1975;49.356;6.816;2023-05-13T10:43:29;17.30;99.90
3921;DHT22;1975;49.356;6.816;2023-05-13T10:46:05;17.30;99.90
3921;DHT22;1975;49.356;6.816;2023-05-13T10:48:40;17.50;99.90
3921;DHT22;1975;49.356;6.816;2023-05-13T10:51:07;17.40;99.90
3921;DHT22;1975;49.356;6.816;2023-05-13T10:53:41;17.20;99.90
3921;DHT22;1975;49.356;6.816;2023-05-13T10:56:07;17.10;99.90
3921;DHT22;1975;49.356;6.816;2023-05-13T10:58:35;17.20;99.90
3921;DHT22;1975;49.356;6.816;2023-05-13T11:01:12;17.20;99.90
3921;DHT22;1975;49.356;6.816;2023-05-13T11:03:38;17.20;99.90
3921;DHT22;1975;49.356;6.816;2023-05-13T11:06:15;17.20;99.90
3921;DHT22;1975;49.356;6.816;2023-05-13T11:08:41;17.20;99.90
3921;DHT22;1975;49.356;6.816;2023-05-13T11:13:42;17.30;99.90
3921;DHT22;1975;49.356;6.816;2023-05-13T11:16:09;17.30;99.90
3921;DHT22;1975;49.356;6.816;2023-05-13T11:18:35;17.40;99.90
3921;DHT22;1975;49.356;6.816;2023-05-13T11:21:01;17.50;99.90
3921;DHT22;1975;49.356;6.816;2023-05-13T11:23:27;17.40;99.90
3921;DHT22;1975;49.356;6.816;2023-05-13T11:26:11;17.40;99.90
3921;DHT22;1975;49.356;6.816;2023-05-13T11:28:51;17.40;99.90
3921;DHT22;1975;49.356;6.816;2023-05-13T11:31:17;17.60;99.90
3921;DHT22;1975;49.356;6.816;2023-05-13T11:34:04;17.60;99.90
3921;DHT22;1975;49.356;6.816;2023-05-13T11:36:30;17.50;99.90
3921;DHT22;1975;49.356;6.816;2023-05-13T11:39:06;17.60;99.90
3921;DHT22;1975;49.356;6.816;2023-05-13T11:41:32;17.60;99.90
3921;DHT22;1975;49.356;6.816;2023-05-13T11:43:58;17.70;99.90
3921;DHT22;1975;49.356;6.816;2023-05-13T11:46:23;17.80;99.90
3921;DHT22;1975;49.356;6.816;2023-05-13T11:48:49;17.90;99.90
3921;DHT22;1975;49.356;6.816;2023-05-13T11:51:18;17.90;99.90
3921;DHT22;1975;49.356;6.816;2023-05-13T11:53:44;18.00;99.90
3921;DHT22;1975;49.356;6.816;2023-05-13T11:56:09;18.10;99.90
3921;DHT22;1975;49.356;6.816;2023-05-13T11:58:35;18.10;99.90
3921;DHT22;1975;49.356;6.816;2023-05-13T12:01:00;18.10;99.90
3921;DHT22;1975;49.356;6.816;2023-05-13T12:03:26;18.10;99.90
3921;DHT22;1975;49.356;6.816;2023-05-13T12:06:02;18.10;99.90
3921;DHT22;1975;49.356;6.816;2023-05-13T12:08:27;18.10;99.90
3921;DHT22;1975;49.356;6.816;2023-05-13T12:10:53;18.20;99.90
3921;DHT22;1975;49.356;6.816;2023-05-13T12:13:18;18.30;99.90
3921;DHT22;1975;49.356;6.816;2023-05-13T12:15:44;18.40;99.90
3921;DHT22;1975;49.356;6.816;2023-05-13T12:18:10;18.40;99.90
3921;DHT22;1975;49.356;6.816;2023-05-13T12:20:36;18.50;99.90
3921;DHT22;1975;49.356;6.816;2023-05-13T12:23:02;18.60;99.90
3921;DHT22;1975;49.356;6.816;2023-05-13T12:25:42;18.40;99.90
3921;DHT22;1975;49.356;6.816;2023-05-13T12:28:17;18.30;99.90
3921;DHT22;1975;49.356;6.816;2023-05-13T12:33:16;18.40;99.90
3921;DHT22;1975;49.356;6.816;2023-05-13T12:35:43;18.60;99.90
3921;DHT22;1975;49.356;6.816;2023-05-13T12:38:12;18.70;99.90
3921;DHT22;1975;49.356;6.816;2023-05-13T12:40:38;18.70;99.90
3921;DHT22;1975;49.356;6.816;2023-05-13T12:43:03;18.60;99.90
3921;DHT22;1975;49.356;6.816;2023-05-13T12:45:29;18.60;99.90
3921;DHT22;1975;49.356;6.816;2023-05-13T12:47:55;18.60;99.90
3921;DHT22;1975;49.356;6.816;2023-05-13T12:50:21;18.70;99.90
3921;DHT22;1975;49.356;6.816;2023-05-13T12:52:47;18.70;99.90
3921;DHT22;1975;49.356;6.816;2023-05-13T12:55:12;18.70;99.90
3921;DHT22;1975;49.356;6.816;2023-05-13T12:57:41;18.60;99.90
3921;DHT22;1975;49.356;6.816;2023-05-13T13:00:06;18.70;99.90
3921;DHT22;1975;49.356;6.816;2023-05-13T13:02:34;18.80;99.90
3921;DHT22;1975;49.356;6.816;2023-05-13T13:04:59;19.00;99.90
3921;DHT22;1975;49.356;6.816;2023-05-13T13:07:25;18.90;99.90
3921;DHT22;1975;49.356;6.816;2023-05-13T13:09:50;18.90;99.90
3921;DHT22;1975;49.356;6.816;2023-05-13T13:12:16;18.80;99.90
3921;DHT22;1975;49.356;6.816;2023-05-13T13:14:41;18.70;99.90
3921;DHT22;1975;49.356;6.816;2023-05-13T13:17:06;18.70;99.90
3921;DHT22;1975;49.356;6.816;2023-05-13T13:19:32;18.70;99.90
3921;DHT22;1975;49.356;6.816;2023-05-13T13:21:57;18.80;99.90
3921;DHT22;1975;49.356;6.816;2023-05-13T13:24:23;19.00;99.90
3921;DHT22;1975;49.356;6.816;2023-05-13T13:26:48;19.00;99.90
3921;DHT22;1975;49.356;6.816;2023-05-13T13:29:14;19.10;99.90
3921;DHT22;1975;49.356;6.816;2023-05-13T13:31:40;18.90;99.90
3921;DHT22;1975;49.356;6.816;2023-05-13T13:34:05;18.80;99.90
3921;DHT22;1975;49.356;6.816;2023-05-13T13:36:31;18.70;99.90
3921;DHT22;1975;49.356;6.816;2023-05-13T13:38:57;18.90;99.90
3921;DHT22;1975;49.356;6.816;2023-05-13T13:41:22;18.80;99.90
3921;DHT22;1975;49.356;6.816;2023-05-13T13:43:50;19.00;99.90
3921;DHT22;1975;49.356;6.816;2023-05-13T13:46:15;19.00;99.90
3921;DHT22;1975;49.356;6.816;2023-05-13T13:48:41;19.10;99.90
3921;DHT22;1975;49.356;6.816;2023-05-13T13:51:06;19.10;99.90
3921;DHT22;1975;49.356;6.816;2023-05-13T13:53:31;19.20;99.90
3921;DHT22;1975;49.356;6.816;2023-05-13T13:55:57;19.30;99.90
3921;DHT22;1975;49.356;6.816;2023-05-13T13:58:22;19.40;99.90
3921;DHT22;1975;49.356;6.816;2023-05-13T14:00:48;19.40;99.90
3921;DHT22;1975;49.356;6.816;2023-05-13T14:03:13;19.50;99.90
3921;DHT22;1975;49.356;6.816;2023-05-13T14:05:39;19.50;99.90
3921;DHT22;1975;49.356;6.816;2023-05-13T14:08:05;19.60;99.90
3921;DHT22;1975;49.356;6.816;2023-05-13T14:10:30;19.60;99.90
3921;DHT22;1975;49.356;6.816;2023-05-13T14:12:56;19.50;99.90
3921;DHT22;1975;49.356;6.816;2023-05-13T14:15:21;19.50;99.90
3921;DHT22;1975;49.356;6.816;2023-05-13T14:17:48;19.20;99.90
3921;DHT22;1975;49.356;6.816;2023-05-13T14:20:13;19.10;99.90
3921;DHT22;1975;49.356;6.816;2023-05-13T14:22:40;18.90;99.90
3921;DHT22;1975;49.356;6.816;2023-05-13T14:25:05;18.80;99.90
3921;DHT22;1975;49.356;6.816;2023-05-13T14:27:31;18.70;99.90
3921;DHT22;1975;49.356;6.816;2023-05-13T14:29:58;18.70;99.90
3921;DHT22;1975;49.356;6.816;2023-05-13T14:32:23;18.70;99.90
3921;DHT22;1975;49.356;6.816;2023-05-13T14:34:49;19.10;99.90
3921;DHT22;1975;49.356;6.816;2023-05-13T14:37:14;19.40;99.90
3921;DHT22;1975;49.356;6.816;2023-05-13T14:39:40;19.50;99.90
3921;DHT22;1975;49.356;6.816;2023-05-13T14:42:05;19.30;99.90
3921;DHT22;1975;49.356;6.816;2023-05-13T14:44:31;19.20;99.90
3921;DHT22;1975;49.356;6.816;2023-05-13T14:46:56;19.10;99.90
3921;DHT22;1975;49.356;6.816;2023-05-13T14:49:22;19.00;99.90
3921;DHT22;1975;49.356;6.816;2023-05-13T14:51:47;18.90;99.90
3921;DHT22;1975;49.356;6.816;2023-05-13T14:54:13;18.90;99.90
3921;DHT22;1975;49.356;6.816;2023-05-13T14:56:39;18.90;99.90
3921;DHT22;1975;49.356;6.816;2023-05-13T14:59:05;19.10;99.90
3921;DHT22;1975;49.356;6.816;2023-05-13T15:01:31;19.30;99.90
3921;DHT22;1975;49.356;6.816;2023-05-13T15:03:56;19.40;99.90
3921;DHT22;1975;49.356;6.816;2023-05-13T15:06:23;19.60;99.90
3921;DHT22;1975;49.356;6.816;2023-05-13T15:08:49;19.70;99.90
3921;DHT22;1975;49.356;6.816;2023-05-13T15:11:14;19.70;99.90
3921;DHT22;1975;49.356;6.816;2023-05-13T15:13:40;19.60;99.90
3921;DHT22;1975;49.356;6.816;2023-05-13T15:16:06;19.50;99.90
3921;DHT22;1975;49.356;6.816;2023-05-13T15:18:31;19.20;99.90
3921;DHT22;1975;49.356;6.816;2023-05-13T15:20:57;19.00;99.90
3921;DHT22;1975;49.356;6.816;2023-05-13T15:23:22;18.90;99.90
3921;DHT22;1975;49.356;6.816;2023-05-13T15:25:48;18.80;99.90
3921;DHT22;1975;49.356;6.816;2023-05-13T15:28:13;18.70;99.90
3921;DHT22;1975;49.356;6.816;2023-05-13T15:30:39;18.70;99.90
3921;DHT22;1975;49.356;6.816;2023-05-13T15:33:04;18.60;99.90
3921;DHT22;1975;49.356;6.816;2023-05-13T15:35:30;18.60;99.90
3921;DHT22;1975;49.356;6.816;2023-05-13T15:37:55;18.60;99.90
3921;DHT22;1975;49.356;6.816;2023-05-13T15:40:22;18.50;99.90
3921;DHT22;1975;49.356;6.816;2023-05-13T15:42:47;18.50;99.90
3921;DHT22;1975;49.356;6.816;2023-05-13T15:45:12;18.50;99.90
3921;DHT22;1975;49.356;6.816;2023-05-13T15:47:38;18.50;99.90
3921;DHT22;1975;49.356;6.816;2023-05-13T15:50:04;18.40;99.90
3921;DHT22;1975;49.356;6.816;2023-05-13T15:52:29;18.40;99.90
3921;DHT22;1975;49.356;6.816;2023-05-13T15:54:55;18.40;99.90
3921;DHT22;1975;49.356;6.816;2023-05-13T15:57:20;18.30;99.90
3921;DHT22;1975;49.356;6.816;2023-05-13T15:59:46;18.30;99.90
3921;DHT22;1975;49.356;6.816;2023-05-13T16:02:11;18.30;99.90
3921;DHT22;1975;49.356;6.816;2023-05-13T16:04:37;18.30;99.90
3921;DHT22;1975;49.356;6.816;2023-05-13T16:07:02;18.30;99.90
3921;DHT22;1975;49.356;6.816;2023-05-13T16:09:28;18.30;99.90
3921;DHT22;1975;49.356;6.816;2023-05-13T16:11:53;18.30;99.90
3921;DHT22;1975;49.356;6.816;2023-05-13T16:14:19;18.30;99.90
3921;DHT22;1975;49.356;6.816;2023-05-13T16:16:44;18.30;99.90